Feng-yuan, Taiwan
Current Conditions -  °F | °C
As of 12:00 PM on Sunday 26 Oct 2014 (Local Time) from RCMQ Reporting Station
Broken Clouds Broken Clouds  
Wind Chill: 82°   Ceiling: 12000
Heat Index: 86°   Visibility: 5mi
Dew Point: 70°   Wind: 9mph
Humidity: 66%   Direction: 340°NNW
Pressure: 30"   Gusts: NA
Location:  24.25°N, 120.72°E
Report Text: RCMQ 260400Z 34008KT 8000 FEW012 SCT025 BKN120 28/21 Q1016 NOSIG RMK A3003
Loading
Personal Weather Stations






























Interactive Weather Map
Tropical Storm Tracking
New forecast layout! Learn more

10-Day Weather Forecast

Advertisements
Track Severe Weather on mobile